Terminal Aerodrome Forecast
Issued by NWS

Home | Current Version | Previous Version | Text Only | Print | Product List | Glossary On
Versions: 1 2 3 4 5 6 7 8 9 10 11 12 13 14 15 16 17 18
000
FTUS45 KTFX 230318 AAA
TAFHLN
TAF AMD
KHLN 230318Z 2303/2324 28015G25KT P6SM SCT040 BKN070 WS020/29035KT
     FM230900 28011KT P6SM SCT035 BKN060 WS020/29030KT
     FM231800 28010G18KT P6SM SCT070=

USA.gov is the U.S. government's official web portal to all federal, state and local government web resources and services.